Aérodrome :
LOGIN :

S'inscrire | Disclaimer

   EN    FR    IT 

 










Légende :    VFR   VFR Marginal   IFR   IFR Intensif   IFR Très Intensif
Visi : 
Plafond : 
>= 8 km
>= 3000ft
5 à 8 km
1000 à 3000 ft
1500m à 5 km
500 à 1000 ft
800 à 1500m
200 à 500 ft
< 800m
< 200 ft
Symboles :   Orages  Brouillard  Fortes neiges  Fortes précipitations  Vent > 20 kt
SIGMETs :   Divers  Orages  Givrage  Turbulence  Onde Orograph.  Cendres Volcan.






- Altitude de l'aérodrome : -11 ft
- Code IATA : AMS


EHAM - Amsterdam Schiphol

DERNIER METAR :
  • 250355Z 02003KT 320V080 2800 -RA BR FEW003 BKN007 BKN016 14/14 Q1015 BECMG 4000

METARs EXPIRÉS :
  • 250325Z 32004KT 3000 -RA BR FEW002 BKN005 BKN014 FEW025CB 14/14 Q1015 RESHRA TEMPO 6000
  • 250255Z 33005KT 300V010 3500 SHRA FEW002 BKN005 FEW025CB 14/14 Q1016 TEMPO 6000 -RA FEW005 BKN045
  • 250225Z 34006KT 4500 RA FEW002 BKN004 FEW025CB 14/14 Q1016 TEMPO 6000 -RA FEW005 BKN045
  • 250155Z 34007KT 6000 -RADZ FEW002 SCT005 BKN048 14/14 Q1016 TEMPO 4000 RA BKN005
  • 250125Z 35006KT 4500 -RADZ FEW003 SCT014 14/14 Q1017 TEMPO 6000
  • 250055Z 36005KT 330V030 6000 -RADZ FEW003 SCT006 14/14 Q1017 TEMPO 4000 RA
  • 250025Z 01006KT 340V040 6000 -RADZ FEW005 BKN038 14/14 Q1017 RERA TEMPO 4000 RA
  • 242355Z 02007KT 340V050 4500 RA SCT005 BKN027 14/14 Q1017 TEMPO 6000 -RA
  • 242325Z 02007KT 340V050 6000 -RA SCT008 BKN035 14/14 Q1017 RERA TEMPO 4000 RA

TAF TAF EHAM
Valide du 25 à 00h jusqu'au 26 à 06h UTC


242318Z 2500/2606 01007KT 6000 -RADZ FEW008 SCT035
PROB40
TEMPO 2500/2507 4000 RA SHRA BKN008 FEW025CB
BECMG 2504/2507 BKN008
BECMG 2509/2512 21010KT 9999 NSW SCT020
PROB40
TEMPO 2511/2515 6000 SHRA FEW008 BKN012 FEW018CB
BECMG 2519/2522 16004KT CAVOK



MET'MAP, la Météo Aéronautique d'un coup d'oeil ! - Copyright ORBIFLY Décembre 2007 - Disclaimer

ORBIFLY MET'MAP TEAM :

Programmation & Développement : Alexandra Zaïnal
Sur une idée originale de : Baudouin d'Aumeries
Soutien technique & logistique : Manuel Goepfert
Assistance : Marc-Olivier Méhu




SOURCES & CREDITS :

   NOAA